createdAt,value
2022-09-25T00:00:28.793Z,32.60
2022-09-25T00:01:30.892Z,32.50
2022-09-25T00:02:32.618Z,32.50
2022-09-25T00:03:34.771Z,32.40
2022-09-25T00:04:36.460Z,32.40
2022-09-25T00:05:39.924Z,32.50
2022-09-25T00:06:42.058Z,32.50
2022-09-25T00:07:43.675Z,32.40
2022-09-25T00:08:46.218Z,32.40
2022-09-25T00:09:47.840Z,31.90
2022-09-25T00:10:51.373Z,31.80
2022-09-25T00:11:53.100Z,32.10
2022-09-25T00:12:55.268Z,32.20
2022-09-25T00:13:58.855Z,32.30
2022-09-25T00:15:00.622Z,32.30
2022-09-25T00:16:03.318Z,32.30
2022-09-25T00:17:05.252Z,32.80
2022-09-25T00:18:07.038Z,33.00
2022-09-25T00:19:35.528Z,33.00
2022-09-25T00:20:37.641Z,33.10
2022-09-25T00:21:39.430Z,33.10
2022-09-25T00:22:42.543Z,33.10
2022-09-25T00:23:45.015Z,33.10
2022-09-25T00:24:46.879Z,33.00
2022-09-25T00:25:56.192Z,33.00
2022-09-25T00:26:59.995Z,33.10
2022-09-25T00:28:02.067Z,32.70
2022-09-25T00:29:05.186Z,32.70
2022-09-25T00:30:07.719Z,32.80
2022-09-25T00:31:11.358Z,33.00
2022-09-25T00:32:13.566Z,33.20
2022-09-25T00:33:15.259Z,33.10
2022-09-25T00:34:17.107Z,33.00
2022-09-25T00:35:18.879Z,32.80
2022-09-25T00:36:21.029Z,33.00
2022-09-25T00:37:22.974Z,32.90
2022-09-25T00:38:24.704Z,33.10
2022-09-25T00:39:27.322Z,33.10
2022-09-25T00:40:29.345Z,33.00
2022-09-25T00:41:32.238Z,33.00
2022-09-25T00:42:33.956Z,33.00
2022-09-25T00:43:42.014Z,33.00
2022-09-25T00:45:03.190Z,33.20
2022-09-25T00:46:20.640Z,33.00
2022-09-25T00:48:00.821Z,32.70
2022-09-25T00:49:13.175Z,33.00
2022-09-25T00:50:36.566Z,33.10
2022-09-25T00:52:03.399Z,33.40
2022-09-25T00:53:17.236Z,33.50
2022-09-25T00:54:42.305Z,33.50
2022-09-25T00:55:46.252Z,33.40
2022-09-25T00:56:50.503Z,33.40
2022-09-25T00:57:56.431Z,33.40
2022-09-25T00:58:58.617Z,33.50
2022-09-25T01:00:08.378Z,33.50
2022-09-25T01:01:10.419Z,33.60
2022-09-25T01:02:20.235Z,33.50
2022-09-25T01:03:23.073Z,33.70
2022-09-25T01:04:26.397Z,33.50
2022-09-25T01:05:36.807Z,33.30
2022-09-25T01:06:39.163Z,33.30
2022-09-25T01:07:43.691Z,33.20
2022-09-25T01:08:46.570Z,33.10
2022-09-25T01:09:50.045Z,32.90
2022-09-25T01:10:52.165Z,32.40
2022-09-25T01:11:55.376Z,32.50
2022-09-25T01:12:59.494Z,32.70
2022-09-25T01:14:03.692Z,32.70
2022-09-25T01:15:12.321Z,32.70
2022-09-25T01:16:24.503Z,32.80
2022-09-25T01:17:40.637Z,32.90
2022-09-25T01:19:01.168Z,33.10
2022-09-25T01:20:20.022Z,33.50
2022-09-25T01:21:35.657Z,33.80
2022-09-25T01:22:50.735Z,34.30
2022-09-25T01:23:58.511Z,34.40
2022-09-25T01:25:05.988Z,34.50
2022-09-25T01:26:31.261Z,34.40
2022-09-25T01:27:50.936Z,34.60
2022-09-25T01:29:07.165Z,34.60
2022-09-25T01:30:20.305Z,34.40
2022-09-25T01:31:41.546Z,34.60
2022-09-25T01:33:02.651Z,34.00
2022-09-25T01:34:20.072Z,33.90
2022-09-25T01:35:44.407Z,34.10
2022-09-25T01:36:59.713Z,34.00
2022-09-25T01:38:31.172Z,33.70
2022-09-25T01:39:38.344Z,33.80
2022-09-25T01:40:43.471Z,33.90
2022-09-25T01:41:50.950Z,34.30
2022-09-25T01:42:58.974Z,34.20
2022-09-25T01:44:20.240Z,34.10
2022-09-25T01:45:35.945Z,34.20
2022-09-25T01:46:42.667Z,34.40
2022-09-25T01:47:49.002Z,33.40
2022-09-25T01:48:56.790Z,32.80
2022-09-25T01:50:01.490Z,32.60
2022-09-25T01:51:09.188Z,32.80
2022-09-25T01:52:19.287Z,32.70
2022-09-25T01:53:28.506Z,32.60
2022-09-25T01:54:37.491Z,33.10
2022-09-25T01:55:56.790Z,32.90
2022-09-25T01:57:22.215Z,32.80
2022-09-25T01:58:41.235Z,32.90
2022-09-25T01:59:54.553Z,32.80
2022-09-25T02:01:14.498Z,32.90
2022-09-25T02:02:21.599Z,33.40
2022-09-25T02:03:44.917Z,33.00
2022-09-25T02:04:57.647Z,33.00
2022-09-25T02:06:06.116Z,33.00
2022-09-25T02:07:11.526Z,33.10
2022-09-25T02:08:22.877Z,32.90
2022-09-25T02:09:41.453Z,33.40
2022-09-25T02:10:51.407Z,32.50
2022-09-25T02:11:57.285Z,32.20
2022-09-25T02:13:11.092Z,31.50
2022-09-25T02:14:19.716Z,31.30
2022-09-25T02:15:34.621Z,30.80
2022-09-25T02:16:43.359Z,30.60
2022-09-25T02:18:11.612Z,30.40
2022-09-25T02:19:34.896Z,30.40
2022-09-25T02:20:37.354Z,30.30
2022-09-25T02:21:38.954Z,30.80
2022-09-25T02:22:42.247Z,31.10
2022-09-25T02:23:52.347Z,31.40
2022-09-25T02:25:18.584Z,31.10
2022-09-25T02:26:29.760Z,30.80
2022-09-25T02:27:31.836Z,30.80
2022-09-25T02:28:33.899Z,30.20
2022-09-25T02:29:35.795Z,29.80
2022-09-25T02:30:38.577Z,30.00
2022-09-25T02:31:57.776Z,30.30
2022-09-25T02:32:59.552Z,30.10
2022-09-25T02:34:01.954Z,30.10
2022-09-25T02:35:04.624Z,29.60
2022-09-25T02:36:06.618Z,29.40
2022-09-25T02:37:16.065Z,29.70
2022-09-25T02:38:19.061Z,29.50
2022-09-25T02:39:24.333Z,29.60
2022-09-25T02:40:47.636Z,29.60
2022-09-25T02:42:01.337Z,29.60
2022-09-25T02:43:32.196Z,30.00
2022-09-25T02:44:56.295Z,30.20
2022-09-25T02:46:25.855Z,30.10
2022-09-25T02:48:02.958Z,30.20
2022-09-25T02:49:25.665Z,29.70
2022-09-25T02:50:36.943Z,30.00
2022-09-25T02:52:12.107Z,30.20
2022-09-25T02:53:38.569Z,30.10
2022-09-25T02:54:46.703Z,30.60
2022-09-25T02:56:23.179Z,31.30
2022-09-25T02:57:56.801Z,31.40
2022-09-25T02:59:09.490Z,31.70
2022-09-25T03:00:13.318Z,31.40
2022-09-25T03:01:22.407Z,31.40
2022-09-25T03:02:26.142Z,31.40
2022-09-25T03:03:28.455Z,31.40
2022-09-25T03:04:32.519Z,31.40
2022-09-25T03:05:36.748Z,31.50
2022-09-25T03:06:39.698Z,31.50
2022-09-25T03:08:00.343Z,31.20
2022-09-25T03:09:06.837Z,31.20
2022-09-25T03:10:10.037Z,31.20
2022-09-25T03:11:14.360Z,31.10
2022-09-25T03:12:16.504Z,31.50
2022-09-25T03:13:31.412Z,30.50
2022-09-25T03:14:33.214Z,30.00
2022-09-25T03:15:37.139Z,30.10
2022-09-25T03:16:46.946Z,30.00
2022-09-25T03:17:51.100Z,30.50
2022-09-25T03:18:52.945Z,31.00
2022-09-25T03:19:55.641Z,30.70
2022-09-25T03:20:58.173Z,30.30
2022-09-25T03:22:02.461Z,30.10
2022-09-25T03:23:04.374Z,30.00
2022-09-25T03:24:06.459Z,29.80
2022-09-25T03:25:10.694Z,29.60
2022-09-25T03:26:13.330Z,29.30
2022-09-25T03:27:15.182Z,29.20
2022-09-25T03:28:17.157Z,29.30
2022-09-25T03:29:19.438Z,29.30
2022-09-25T03:30:21.144Z,29.70
2022-09-25T03:31:23.318Z,29.20
2022-09-25T03:32:25.470Z,29.10
2022-09-25T03:33:35.696Z,28.90
2022-09-25T03:34:37.365Z,28.80
2022-09-25T03:35:39.995Z,29.00
2022-09-25T03:36:42.537Z,28.90
2022-09-25T03:37:44.619Z,28.60
2022-09-25T03:38:49.216Z,28.30
2022-09-25T03:39:50.946Z,28.40
2022-09-25T03:40:52.767Z,28.50
2022-09-25T03:41:54.797Z,28.40
2022-09-25T03:42:56.664Z,28.90
2022-09-25T03:44:00.188Z,28.80
2022-09-25T03:45:02.365Z,28.60
2022-09-25T03:46:09.178Z,28.50
2022-09-25T03:47:11.067Z,28.70
2022-09-25T03:48:13.829Z,28.70
2022-09-25T03:49:15.404Z,28.90
2022-09-25T03:50:17.069Z,29.30
2022-09-25T03:51:19.749Z,29.20
2022-09-25T03:52:22.112Z,29.20
2022-09-25T03:53:25.341Z,28.90
2022-09-25T03:54:27.057Z,28.70
2022-09-25T03:55:43.200Z,28.70
2022-09-25T03:56:45.453Z,30.00
2022-09-25T03:57:47.170Z,29.00
2022-09-25T03:58:50.058Z,29.00
2022-09-25T03:59:52.284Z,29.30
2022-09-25T04:00:58.048Z,29.40
2022-09-25T04:01:59.828Z,29.20
2022-09-25T04:03:01.743Z,29.20
2022-09-25T04:04:03.559Z,29.20
2022-09-25T04:05:05.826Z,29.10
2022-09-25T04:06:08.974Z,29.00
2022-09-25T04:07:10.574Z,28.90
2022-09-25T04:08:12.211Z,28.90
2022-09-25T04:09:13.907Z,28.70
2022-09-25T04:10:16.359Z,28.60
2022-09-25T04:11:20.828Z,28.60
2022-09-25T04:12:22.710Z,28.80
2022-09-25T04:13:24.365Z,29.10
2022-09-25T04:14:27.424Z,28.60
2022-09-25T04:15:29.680Z,28.40
2022-09-25T04:16:31.565Z,28.40
2022-09-25T04:17:33.690Z,29.00
2022-09-25T04:18:35.638Z,28.90
2022-09-25T04:19:37.471Z,29.10
2022-09-25T04:20:39.604Z,29.40
2022-09-25T04:21:41.304Z,29.30
2022-09-25T04:22:43.038Z,29.30
2022-09-25T04:24:04.806Z,29.40
2022-09-25T04:25:07.429Z,29.80
2022-09-25T04:26:09.751Z,29.80
2022-09-25T04:27:11.461Z,29.60
2022-09-25T04:28:15.166Z,29.60
2022-09-25T04:29:17.578Z,29.60
2022-09-25T04:30:19.848Z,29.60
2022-09-25T04:31:21.541Z,29.60
2022-09-25T04:32:42.208Z,29.40
2022-09-25T04:33:47.457Z,29.60
2022-09-25T04:34:49.158Z,29.70
2022-09-25T04:35:50.993Z,29.70
2022-09-25T04:36:52.633Z,29.40
2022-09-25T04:37:54.959Z,29.60
2022-09-25T04:38:56.601Z,29.70
2022-09-25T04:39:58.730Z,29.90
2022-09-25T04:41:01.719Z,29.90
2022-09-25T04:42:03.628Z,30.00
2022-09-25T04:43:06.908Z,30.00
2022-09-25T04:44:08.511Z,30.10
2022-09-25T04:45:10.453Z,29.90
2022-09-25T04:46:18.286Z,30.10
2022-09-25T04:47:23.306Z,30.40
2022-09-25T04:48:24.928Z,30.70
2022-09-25T04:49:26.959Z,30.30
2022-09-25T04:50:29.985Z,30.40
2022-09-25T04:51:31.592Z,31.50
2022-09-25T04:52:33.342Z,30.50
2022-09-25T04:53:40.351Z,30.90
2022-09-25T04:54:42.972Z,30.90
2022-09-25T04:55:46.297Z,31.00
2022-09-25T04:56:47.980Z,30.80
2022-09-25T04:57:58.780Z,30.90
2022-09-25T04:59:01.048Z,31.00
2022-09-25T05:00:04.114Z,30.50
2022-09-25T05:01:09.457Z,30.40
2022-09-25T05:02:13.686Z,30.50
2022-09-25T05:03:15.700Z,30.60
2022-09-25T05:04:17.434Z,30.70
2022-09-25T05:05:20.244Z,31.10
2022-09-25T05:06:22.797Z,31.10
2022-09-25T05:07:24.698Z,30.50
2022-09-25T05:08:27.756Z,30.40
2022-09-25T05:09:29.816Z,29.90
2022-09-25T05:10:35.085Z,30.00
2022-09-25T05:11:36.812Z,30.00
2022-09-25T05:12:38.502Z,29.80
2022-09-25T05:13:41.960Z,29.50
2022-09-25T05:14:44.079Z,29.90
2022-09-25T05:15:45.898Z,29.70
2022-09-25T05:16:47.570Z,29.80
2022-09-25T05:17:49.692Z,29.90
2022-09-25T05:18:51.338Z,29.90
2022-09-25T05:19:53.058Z,29.70
2022-09-25T05:20:54.810Z,29.90
2022-09-25T05:21:56.655Z,29.70
2022-09-25T05:22:59.052Z,29.80
2022-09-25T05:24:00.865Z,29.80
2022-09-25T05:25:02.674Z,29.90
2022-09-25T05:26:04.363Z,30.00
2022-09-25T05:27:06.249Z,30.10
2022-09-25T05:28:09.468Z,30.30
2022-09-25T05:29:11.326Z,30.40
2022-09-25T05:30:13.365Z,30.70
2022-09-25T05:31:15.252Z,31.00
2022-09-25T05:32:18.197Z,30.70
2022-09-25T05:33:20.150Z,30.90
2022-09-25T05:34:21.741Z,30.40
2022-09-25T05:35:24.457Z,29.80
2022-09-25T05:36:26.105Z,29.80
2022-09-25T05:37:28.096Z,30.00
2022-09-25T05:38:31.610Z,29.90
2022-09-25T05:39:33.216Z,29.80
2022-09-25T05:40:34.919Z,29.60
2022-09-25T05:41:37.101Z,29.70
2022-09-25T05:42:41.786Z,29.70
2022-09-25T05:43:46.731Z,29.80
2022-09-25T05:44:48.860Z,29.70
2022-09-25T05:45:55.715Z,30.00
2022-09-25T05:46:57.349Z,30.10
2022-09-25T05:48:03.612Z,30.20
2022-09-25T05:49:05.620Z,31.00
2022-09-25T05:50:09.273Z,31.00
2022-09-25T05:51:11.185Z,30.60
2022-09-25T05:52:12.794Z,30.40
2022-09-25T05:53:14.415Z,30.50
2022-09-25T05:54:16.018Z,30.30
2022-09-25T05:55:17.686Z,30.40
2022-09-25T05:56:19.924Z,30.30
2022-09-25T05:57:22.269Z,30.70
2022-09-25T05:58:27.463Z,30.20
2022-09-25T05:59:29.406Z,30.00
2022-09-25T06:00:36.012Z,30.20
2022-09-25T06:01:37.725Z,30.30
2022-09-25T06:02:39.665Z,30.20
2022-09-25T06:03:41.404Z,30.30
2022-09-25T06:04:43.374Z,30.40
2022-09-25T06:05:46.140Z,30.50
2022-09-25T06:06:47.904Z,30.90
2022-09-25T06:07:53.773Z,30.30
2022-09-25T06:08:55.455Z,30.60
2022-09-25T06:09:57.110Z,30.60
2022-09-25T06:11:01.025Z,30.40
2022-09-25T06:12:03.854Z,30.70
2022-09-25T06:13:05.779Z,30.90
2022-09-25T06:14:07.571Z,30.30
2022-09-25T06:15:09.703Z,30.00
2022-09-25T06:16:19.325Z,30.00
2022-09-25T06:17:21.104Z,30.00
2022-09-25T06:18:24.571Z,29.90
2022-09-25T06:19:29.068Z,30.00
2022-09-25T06:20:31.028Z,29.60
2022-09-25T06:21:33.492Z,29.40
2022-09-25T06:22:35.115Z,29.40
2022-09-25T06:23:36.709Z,29.60
2022-09-25T06:24:38.412Z,29.40
2022-09-25T06:25:40.917Z,29.50
2022-09-25T06:26:43.169Z,29.70
2022-09-25T06:27:44.994Z,29.90
2022-09-25T06:28:46.646Z,29.90
2022-09-25T06:29:48.251Z,30.00
2022-09-25T06:30:50.171Z,29.80
2022-09-25T06:31:53.346Z,29.60
2022-09-25T06:32:58.467Z,29.20
2022-09-25T06:34:01.749Z,29.50
2022-09-25T06:35:04.366Z,29.50
2022-09-25T06:36:06.259Z,29.30
2022-09-25T06:37:09.172Z,29.60
2022-09-25T06:38:11.626Z,29.60
2022-09-25T06:39:13.240Z,29.60
2022-09-25T06:40:15.322Z,29.60
2022-09-25T06:41:17.000Z,29.30
2022-09-25T06:42:18.791Z,29.40
2022-09-25T06:43:20.459Z,29.50
2022-09-25T06:44:23.357Z,29.40
2022-09-25T06:45:26.795Z,29.40
2022-09-25T06:46:28.541Z,28.70
2022-09-25T06:47:30.211Z,29.00
2022-09-25T06:48:32.410Z,29.20
2022-09-25T06:49:34.103Z,28.80
2022-09-25T06:50:47.733Z,28.70
2022-09-25T06:51:51.087Z,28.60
2022-09-25T06:52:53.380Z,28.30
2022-09-25T06:53:55.816Z,27.90
2022-09-25T06:54:57.980Z,27.60
2022-09-25T06:56:00.133Z,27.60
2022-09-25T06:57:10.780Z,27.70
2022-09-25T06:58:23.929Z,27.60
2022-09-25T06:59:25.883Z,27.60
2022-09-25T07:00:27.829Z,27.60
2022-09-25T07:01:29.611Z,27.70
2022-09-25T07:02:49.843Z,28.20
2022-09-25T07:03:51.500Z,27.70
2022-09-25T07:04:53.754Z,27.70
2022-09-25T07:05:55.453Z,27.70
2022-09-25T07:06:59.018Z,27.70
2022-09-25T07:08:01.389Z,27.30
2022-09-25T07:09:03.810Z,27.30
2022-09-25T07:10:06.485Z,27.00
2022-09-25T07:11:08.112Z,26.80
2022-09-25T07:12:11.245Z,26.60
2022-09-25T07:13:12.912Z,26.60
2022-09-25T07:14:14.758Z,26.30
2022-09-25T07:15:16.559Z,26.30
2022-09-25T07:16:19.629Z,26.20
2022-09-25T07:17:22.350Z,26.00
2022-09-25T07:18:25.415Z,26.20
2022-09-25T07:19:27.908Z,25.80
2022-09-25T07:20:30.283Z,25.40
2022-09-25T07:21:32.256Z,25.40
2022-09-25T07:22:34.110Z,25.60
2022-09-25T07:23:36.314Z,25.50
2022-09-25T07:24:40.890Z,25.20
2022-09-25T07:25:43.555Z,25.10
2022-09-25T07:26:45.206Z,25.10
2022-09-25T07:27:46.800Z,25.10
2022-09-25T07:28:54.826Z,25.20
2022-09-25T07:29:56.511Z,25.20
2022-09-25T07:30:58.180Z,25.10
2022-09-25T07:32:00.340Z,24.90
2022-09-25T07:33:02.598Z,24.90
2022-09-25T07:34:09.325Z,24.50
2022-09-25T07:35:11.169Z,24.20
2022-09-25T07:36:14.080Z,24.20
2022-09-25T07:37:16.223Z,24.20
2022-09-25T07:38:18.581Z,24.30
2022-09-25T07:39:20.539Z,24.30
2022-09-25T07:40:22.245Z,24.30
2022-09-25T07:41:24.299Z,24.40
2022-09-25T07:42:25.934Z,24.30
2022-09-25T07:43:27.533Z,24.30
2022-09-25T07:44:31.611Z,24.30
2022-09-25T07:45:37.884Z,24.30
2022-09-25T07:46:43.361Z,24.30
2022-09-25T07:47:45.079Z,24.30
2022-09-25T07:48:49.305Z,24.00
2022-09-25T07:49:51.158Z,24.30
2022-09-25T07:50:53.126Z,24.30
2022-09-25T07:51:54.752Z,24.30
2022-09-25T07:52:58.508Z,24.30
2022-09-25T07:54:01.107Z,24.40
2022-09-25T07:55:02.790Z,24.30
2022-09-25T07:56:07.168Z,24.30
2022-09-25T07:57:09.194Z,24.30
2022-09-25T07:58:12.949Z,24.10
2022-09-25T07:59:14.586Z,24.00
2022-09-25T08:00:18.228Z,24.20
2022-09-25T08:01:20.575Z,24.00
2022-09-25T08:02:22.321Z,23.80
2022-09-25T08:03:24.127Z,24.00
2022-09-25T08:04:26.065Z,24.40
2022-09-25T08:05:28.131Z,24.40
2022-09-25T08:06:29.850Z,24.30
2022-09-25T08:07:31.664Z,24.00
2022-09-25T08:08:34.428Z,24.30
2022-09-25T08:09:36.522Z,24.30
2022-09-25T08:10:38.374Z,24.30
2022-09-25T08:11:40.072Z,24.30
2022-09-25T08:12:42.648Z,24.40
2022-09-25T08:13:50.038Z,24.60
2022-09-25T08:14:52.724Z,24.30
2022-09-25T08:15:54.911Z,24.30
2022-09-25T08:16:56.749Z,24.50
2022-09-25T08:17:58.757Z,24.30
2022-09-25T08:19:00.470Z,24.60
2022-09-25T08:20:02.958Z,24.70
2022-09-25T08:21:05.478Z,24.80
2022-09-25T08:22:07.094Z,25.50
2022-09-25T08:23:08.758Z,24.80
2022-09-25T08:24:10.841Z,25.00
2022-09-25T08:25:13.098Z,25.00
2022-09-25T08:26:21.058Z,25.00
2022-09-25T08:27:24.044Z,25.20
2022-09-25T08:28:26.223Z,25.30
2022-09-25T08:29:27.833Z,25.40
2022-09-25T08:30:30.642Z,25.70
2022-09-25T08:31:32.797Z,25.60
2022-09-25T08:32:34.993Z,25.30
2022-09-25T08:33:37.458Z,25.20
2022-09-25T08:34:41.630Z,25.10
2022-09-25T08:35:43.911Z,25.20
2022-09-25T08:36:48.945Z,25.00
2022-09-25T08:37:50.638Z,25.10
2022-09-25T08:38:59.862Z,24.90
2022-09-25T08:40:01.812Z,24.60
2022-09-25T08:41:13.735Z,24.60
2022-09-25T08:42:26.514Z,24.10
2022-09-25T08:43:28.582Z,23.90
2022-09-25T08:45:02.415Z,23.80
2022-09-25T08:46:41.125Z,23.70
2022-09-25T08:48:02.616Z,23.40
2022-09-25T08:49:06.777Z,22.70
2022-09-25T08:50:17.063Z,22.40
2022-09-25T08:51:18.961Z,22.60
2022-09-25T08:52:22.777Z,22.50
2022-09-25T08:53:25.987Z,22.70
2022-09-25T08:54:31.718Z,22.80
2022-09-25T08:55:57.955Z,23.10
2022-09-25T08:57:07.098Z,23.60
2022-09-25T08:58:10.292Z,23.80
2022-09-25T08:59:23.586Z,23.90
2022-09-25T09:00:25.241Z,23.70
2022-09-25T09:01:30.537Z,23.60
2022-09-25T09:02:45.681Z,23.60
2022-09-25T09:03:52.471Z,23.80
2022-09-25T09:04:57.823Z,23.60
2022-09-25T09:06:05.645Z,23.20
2022-09-25T09:07:27.323Z,22.40
2022-09-25T09:08:31.663Z,22.60
2022-09-25T09:09:48.039Z,22.40
2022-09-25T09:10:54.813Z,21.90
2022-09-25T09:12:01.479Z,21.60
2022-09-25T09:13:24.798Z,21.60
2022-09-25T09:14:31.974Z,21.80
2022-09-25T09:15:49.860Z,21.70
2022-09-25T09:17:15.686Z,21.30
2022-09-25T09:18:26.062Z,21.10
2022-09-25T09:19:27.835Z,21.10
2022-09-25T09:20:43.983Z,21.70
2022-09-25T09:21:51.609Z,21.20
2022-09-25T09:22:54.615Z,20.50
2022-09-25T09:24:05.877Z,20.70
2022-09-25T09:25:25.355Z,20.00
2022-09-25T09:26:53.391Z,19.90
2022-09-25T09:28:19.571Z,19.60
2022-09-25T09:29:39.540Z,19.60
2022-09-25T09:30:57.817Z,19.50
2022-09-25T09:32:21.271Z,19.00
2022-09-25T09:33:29.717Z,18.60
2022-09-25T09:35:04.270Z,19.00
2022-09-25T09:36:13.132Z,18.80
2022-09-25T09:37:40.173Z,18.10
2022-09-25T09:39:28.177Z,18.20
2022-09-25T09:40:58.781Z,17.30
2022-09-25T09:42:26.896Z,17.10
2022-09-25T09:43:58.177Z,16.20
2022-09-25T09:45:32.358Z,16.10
2022-09-25T09:47:28.508Z,15.50
2022-09-25T09:48:57.749Z,15.10
2022-09-25T09:50:19.513Z,13.70
2022-09-25T09:51:32.145Z,12.40
2022-09-25T09:52:39.034Z,13.30
2022-09-25T09:53:50.833Z,13.70
2022-09-25T09:55:19.487Z,13.70
2022-09-25T09:56:25.658Z,12.90
2022-09-25T09:57:38.854Z,13.70
2022-09-25T09:58:45.165Z,13.70
2022-09-25T09:59:52.919Z,13.80
2022-09-25T10:00:55.234Z,13.70
2022-09-25T10:02:11.650Z,13.70
2022-09-25T10:03:24.521Z,12.80
2022-09-25T10:04:32.454Z,13.00
2022-09-25T10:05:45.249Z,12.80
2022-09-25T10:07:04.340Z,12.30
2022-09-25T10:08:06.001Z,12.60
2022-09-25T10:09:14.452Z,13.10
2022-09-25T10:10:18.387Z,12.80
2022-09-25T10:11:20.934Z,12.60
2022-09-25T10:12:36.579Z,12.80
2022-09-25T10:13:40.088Z,12.50
2022-09-25T10:14:46.248Z,12.50
2022-09-25T10:16:06.046Z,12.50
2022-09-25T10:17:11.616Z,12.50
2022-09-25T10:18:15.203Z,12.70
2022-09-25T10:19:25.370Z,12.80
2022-09-25T10:20:36.877Z,13.10
2022-09-25T10:22:04.859Z,13.00
2022-09-25T10:23:35.849Z,12.40
2022-09-25T10:24:55.491Z,12.50
2022-09-25T10:25:57.163Z,11.60
2022-09-25T10:27:25.183Z,12.20
2022-09-25T10:28:36.234Z,12.10
2022-09-25T10:29:37.861Z,12.50
2022-09-25T10:30:46.515Z,12.50
2022-09-25T10:31:56.797Z,11.40
2022-09-25T10:33:08.707Z,12.50
2022-09-25T10:34:13.181Z,11.80
2022-09-25T10:35:24.384Z,12.00
2022-09-25T10:36:51.645Z,11.50
2022-09-25T10:37:55.679Z,11.60
2022-09-25T10:39:08.583Z,11.70
2022-09-25T10:40:44.956Z,11.80
2022-09-25T10:41:48.334Z,10.60
2022-09-25T10:43:05.924Z,11.20
2022-09-25T10:44:35.727Z,11.40
2022-09-25T10:45:40.574Z,11.50
2022-09-25T10:47:00.616Z,10.50
2022-09-25T10:48:40.009Z,10.40
2022-09-25T10:50:05.865Z,10.90
2022-09-25T10:51:09.785Z,10.00
2022-09-25T10:52:19.587Z,10.00
2022-09-25T10:53:30.161Z,9.90
2022-09-25T10:54:40.343Z,10.50
2022-09-25T10:55:51.653Z,10.70
2022-09-25T10:56:55.008Z,10.90
2022-09-25T10:58:16.087Z,10.60
2022-09-25T10:59:21.187Z,11.00
2022-09-25T11:00:26.680Z,11.00
2022-09-25T11:01:49.338Z,11.20
2022-09-25T11:02:56.416Z,12.10
2022-09-25T11:03:59.055Z,11.80
2022-09-25T11:05:01.788Z,11.90
2022-09-25T11:06:08.507Z,11.70
2022-09-25T11:07:17.493Z,12.40
2022-09-25T11:08:22.406Z,12.50
2022-09-25T11:09:27.197Z,12.60
2022-09-25T11:10:34.360Z,12.80
2022-09-25T11:11:37.617Z,13.00
2022-09-25T11:12:43.479Z,13.30
2022-09-25T11:13:52.784Z,13.70
2022-09-25T11:14:58.007Z,13.70
2022-09-25T11:16:01.916Z,13.70
2022-09-25T11:17:06.712Z,13.70
2022-09-25T11:18:35.186Z,13.70
2022-09-25T11:19:38.631Z,14.00
2022-09-25T11:20:42.279Z,14.00
2022-09-25T11:22:00.038Z,14.40
2022-09-25T11:23:29.190Z,14.70
2022-09-25T11:24:51.496Z,14.60
2022-09-25T11:25:59.579Z,14.90
2022-09-25T11:27:30.373Z,14.90
2022-09-25T11:28:35.575Z,15.40
2022-09-25T11:30:06.839Z,15.10
2022-09-25T11:31:25.994Z,16.10
2022-09-25T11:32:42.030Z,16.60
2022-09-25T11:34:10.991Z,16.10
2022-09-25T11:35:27.938Z,16.00
2022-09-25T11:36:40.354Z,15.80
2022-09-25T11:38:05.800Z,15.50
2022-09-25T11:39:51.142Z,15.60
2022-09-25T11:41:12.246Z,14.90
2022-09-25T11:42:54.902Z,14.60
2022-09-25T11:44:23.802Z,14.60
2022-09-25T11:45:37.537Z,15.00
2022-09-25T11:47:01.752Z,15.20
2022-09-25T11:48:25.764Z,15.20
2022-09-25T11:49:31.314Z,15.10
2022-09-25T11:50:48.942Z,15.20
2022-09-25T11:52:00.583Z,15.70
2022-09-25T11:53:24.727Z,15.40
2022-09-25T11:54:47.858Z,14.70
2022-09-25T11:56:21.445Z,14.90
2022-09-25T11:57:58.031Z,14.90
2022-09-25T11:59:23.382Z,14.60
2022-09-25T12:00:46.987Z,14.90
2022-09-25T12:01:57.999Z,15.10
2022-09-25T12:03:16.487Z,15.60
2022-09-25T12:04:30.677Z,14.90
2022-09-25T12:05:53.573Z,14.60
2022-09-25T12:07:17.181Z,14.50
2022-09-25T12:08:54.674Z,14.10
2022-09-25T12:10:16.186Z,14.20
2022-09-25T12:11:18.133Z,13.70
2022-09-25T12:12:31.112Z,13.80
2022-09-25T12:14:04.964Z,14.40
2022-09-25T12:15:46.444Z,14.60
2022-09-25T12:17:01.504Z,13.50
2022-09-25T12:18:34.187Z,13.00
2022-09-25T12:19:51.985Z,12.80
2022-09-25T12:21:07.669Z,13.10
2022-09-25T12:22:21.061Z,12.50
2022-09-25T12:23:43.220Z,12.50
2022-09-25T12:25:09.593Z,12.40
2022-09-25T12:26:40.480Z,12.50
2022-09-25T12:28:08.645Z,12.90
2022-09-25T12:29:34.550Z,12.60
2022-09-25T12:31:12.215Z,12.80
2022-09-25T12:32:53.142Z,12.50
2022-09-25T12:34:00.914Z,12.20
2022-09-25T12:35:21.826Z,12.30
2022-09-25T12:36:36.372Z,11.70
2022-09-25T12:37:58.176Z,10.70
2022-09-25T12:39:21.193Z,10.70
2022-09-25T12:40:31.680Z,10.40
2022-09-25T12:41:49.524Z,10.20
2022-09-25T12:43:18.457Z,10.00
2022-09-25T12:44:45.277Z,9.60
2022-09-25T12:46:13.065Z,9.60
2022-09-25T12:47:36.503Z,9.90
2022-09-25T12:48:52.229Z,9.80
2022-09-25T12:50:19.152Z,9.60
2022-09-25T12:51:26.327Z,9.60
2022-09-25T12:52:37.991Z,9.60
2022-09-25T12:53:47.500Z,9.20
2022-09-25T12:55:05.851Z,9.70
2022-09-25T12:56:24.220Z,9.20
2022-09-25T12:57:31.695Z,9.00
2022-09-25T12:58:57.848Z,8.30
2022-09-25T13:00:25.931Z,8.30
2022-09-25T13:01:42.275Z,9.20
2022-09-25T13:03:31.300Z,7.80
2022-09-25T13:04:52.318Z,7.70
2022-09-25T13:06:28.247Z,7.30
2022-09-25T13:07:45.762Z,7.10
2022-09-25T13:09:11.271Z,6.80
2022-09-25T13:10:45.102Z,5.50
2022-09-25T13:12:08.607Z,3.40
2022-09-25T13:13:19.768Z,4.70
2022-09-25T13:14:42.754Z,3.50
2022-09-25T13:15:45.868Z,4.10
2022-09-25T13:16:48.817Z,5.10
2022-09-25T13:17:50.818Z,5.20
2022-09-25T13:19:12.548Z,4.10
2022-09-25T13:20:37.416Z,3.70
2022-09-25T13:21:43.123Z,3.60
2022-09-25T13:22:45.020Z,3.80
2022-09-25T13:23:50.495Z,3.90
2022-09-25T13:25:01.928Z,3.60
2022-09-25T13:26:25.117Z,3.20
2022-09-25T13:27:34.087Z,3.20
2022-09-25T13:28:51.065Z,3.40
2022-09-25T13:29:58.475Z,1.50
2022-09-25T13:31:08.700Z,2.70
2022-09-25T13:32:23.243Z,3.10
2022-09-25T13:33:25.438Z,3.40
2022-09-25T13:34:27.055Z,3.50
2022-09-25T13:35:32.487Z,3.80
2022-09-25T13:36:39.147Z,3.00
2022-09-25T13:37:40.910Z,2.70
2022-09-25T13:39:04.700Z,3.00
2022-09-25T13:40:42.410Z,3.20
2022-09-25T13:42:24.491Z,1.70
2022-09-25T13:43:29.032Z,1.00
2022-09-25T13:44:43.117Z,1.40
2022-09-25T13:45:44.885Z,1.30
2022-09-25T13:46:46.852Z,1.00
2022-09-25T13:47:55.092Z,1.00
2022-09-25T13:49:33.666Z,1.00
2022-09-25T13:50:47.878Z,1.00
2022-09-25T13:51:49.513Z,1.00
2022-09-25T13:53:19.797Z,1.00
2022-09-25T13:54:23.786Z,1.00
2022-09-25T13:55:31.639Z,1.00
2022-09-25T13:56:42.371Z,1.00
2022-09-25T13:57:59.259Z,1.00
2022-09-25T13:59:10.787Z,1.00
2022-09-25T14:00:16.348Z,1.00
2022-09-25T14:01:34.373Z,1.00
2022-09-25T14:02:42.760Z,1.00
2022-09-25T14:03:48.156Z,1.00
2022-09-25T14:04:51.666Z,1.00
2022-09-25T14:05:53.378Z,1.00
2022-09-25T14:07:04.810Z,1.50
2022-09-25T14:08:12.121Z,1.70
2022-09-25T14:09:18.431Z,2.20
2022-09-25T14:10:20.942Z,2.00
2022-09-25T14:11:27.906Z,1.70
2022-09-25T14:12:38.012Z,2.30
2022-09-25T14:13:45.971Z,2.60
2022-09-25T14:14:57.976Z,2.40
2022-09-25T14:16:03.552Z,2.20
2022-09-25T14:17:06.106Z,2.70
2022-09-25T14:18:23.404Z,3.60
2022-09-25T14:19:31.924Z,2.70
2022-09-25T14:20:37.286Z,2.70
2022-09-25T14:21:38.973Z,2.90
2022-09-25T14:22:46.071Z,2.80
2022-09-25T14:23:50.406Z,3.00
2022-09-25T14:24:53.170Z,2.70
2022-09-25T14:26:17.020Z,2.70
2022-09-25T14:27:23.849Z,2.70
2022-09-25T14:28:33.636Z,2.70
2022-09-25T14:29:40.416Z,2.70
2022-09-25T14:30:54.307Z,2.80
2022-09-25T14:32:36.211Z,3.00
2022-09-25T14:33:36.251Z,2.90
2022-09-25T14:35:01.397Z,3.00
2022-09-25T14:36:42.547Z,2.70
2022-09-25T14:37:52.833Z,1.70
2022-09-25T14:39:12.839Z,1.60
2022-09-25T14:40:34.024Z,2.50
2022-09-25T14:42:17.066Z,1.60
2022-09-25T14:43:40.438Z,2.10
2022-09-25T14:45:20.800Z,2.10
2022-09-25T14:46:23.480Z,2.60
2022-09-25T14:47:32.003Z,2.90
2022-09-25T14:48:39.377Z,2.90
2022-09-25T14:49:45.417Z,1.80
2022-09-25T14:50:50.467Z,1.40
2022-09-25T14:52:01.071Z,1.30
2022-09-25T14:53:08.322Z,1.30
2022-09-25T14:54:16.145Z,1.20
2022-09-25T14:55:21.055Z,1.80
2022-09-25T14:56:24.251Z,1.50
2022-09-25T14:57:33.426Z,1.30